sensor_id;sensor_type;location;lat;lon;timestamp;pressure;altitude;pressure_sealevel;temperature;humidity
29825;BME280;16713;52.916;12.834;2023-12-20T00:01:36;100243.19;;;6.46;79.24
29825;BME280;16713;52.916;12.834;2023-12-20T00:04:03;100247.44;;;6.44;80.60
29825;BME280;16713;52.916;12.834;2023-12-20T00:06:30;100239.66;;;6.46;79.80
29825;BME280;16713;52.916;12.834;2023-12-20T00:08:57;100241.44;;;6.54;79.47
29825;BME280;16713;52.916;12.834;2023-12-20T00:11:26;100236.78;;;6.54;80.06
29825;BME280;16713;52.916;12.834;2023-12-20T00:13:52;100245.94;;;6.46;78.86
29825;BME280;16713;52.916;12.834;2023-12-20T00:16:19;100257.13;;;6.57;80.06
29825;BME280;16713;52.916;12.834;2023-12-20T00:18:46;100246.84;;;6.66;78.60
29825;BME280;16713;52.916;12.834;2023-12-20T00:21:12;100248.75;;;6.65;78.94
29825;BME280;16713;52.916;12.834;2023-12-20T00:23:39;100249.72;;;6.73;78.19
29825;BME280;16713;52.916;12.834;2023-12-20T00:26:05;100242.06;;;6.78;77.33
29825;BME280;16713;52.916;12.834;2023-12-20T00:28:32;100237.41;;;6.79;76.64
29825;BME280;16713;52.916;12.834;2023-12-20T00:30:58;100243.84;;;6.71;76.75
29825;BME280;16713;52.916;12.834;2023-12-20T00:33:25;100254.41;;;6.72;75.21
29825;BME280;16713;52.916;12.834;2023-12-20T00:35:52;100249.47;;;6.78;75.06
29825;BME280;16713;52.916;12.834;2023-12-20T00:38:18;100246.72;;;6.78;74.95
29825;BME280;16713;52.916;12.834;2023-12-20T00:40:45;100245.88;;;6.74;74.74
29825;BME280;16713;52.916;12.834;2023-12-20T00:43:11;100248.84;;;6.69;74.54
29825;BME280;16713;52.916;12.834;2023-12-20T00:45:38;100252.75;;;6.68;76.26
29825;BME280;16713;52.916;12.834;2023-12-20T00:48:05;100253.09;;;6.66;75.73
29825;BME280;16713;52.916;12.834;2023-12-20T00:50:32;100259.69;;;6.65;74.41
29825;BME280;16713;52.916;12.834;2023-12-20T00:52:58;100271.44;;;6.66;74.75
29825;BME280;16713;52.916;12.834;2023-12-20T00:55:25;100275.28;;;6.65;74.62
29825;BME280;16713;52.916;12.834;2023-12-20T00:57:52;100270.97;;;6.64;74.29
29825;BME280;16713;52.916;12.834;2023-12-20T01:00:19;100276.09;;;6.65;75.71
29825;BME280;16713;52.916;12.834;2023-12-20T01:02:46;100272.22;;;6.66;75.66
29825;BME280;16713;52.916;12.834;2023-12-20T01:05:15;100271.78;;;6.64;75.60
29825;BME280;16713;52.916;12.834;2023-12-20T01:07:42;100279.97;;;6.64;73.88
29825;BME280;16713;52.916;12.834;2023-12-20T01:10:08;100268.94;;;6.61;75.51
29825;BME280;16713;52.916;12.834;2023-12-20T01:12:36;100273.88;;;6.55;75.14
29825;BME280;16713;52.916;12.834;2023-12-20T01:15:03;100278.47;;;6.51;74.42
29825;BME280;16713;52.916;12.834;2023-12-20T01:17:29;100278.72;;;6.46;74.54
29825;BME280;16713;52.916;12.834;2023-12-20T01:19:56;100282.69;;;6.49;76.31
29825;BME280;16713;52.916;12.834;2023-12-20T01:22:22;100277.13;;;6.45;76.03
29825;BME280;16713;52.916;12.834;2023-12-20T01:24:49;100275.78;;;6.39;76.83
29825;BME280;16713;52.916;12.834;2023-12-20T01:27:15;100280.13;;;6.40;75.46
29825;BME280;16713;52.916;12.834;2023-12-20T01:29:42;100277.75;;;6.39;76.61
29825;BME280;16713;52.916;12.834;2023-12-20T01:32:08;100277.53;;;6.32;75.85
29825;BME280;16713;52.916;12.834;2023-12-20T01:34:35;100279.81;;;6.30;75.62
29825;BME280;16713;52.916;12.834;2023-12-20T01:37:02;100281.84;;;6.33;76.32
29825;BME280;16713;52.916;12.834;2023-12-20T01:39:29;100277.09;;;6.30;77.78
29825;BME280;16713;52.916;12.834;2023-12-20T01:41:56;100274.28;;;6.26;75.80
29825;BME280;16713;52.916;12.834;2023-12-20T01:44:22;100269.59;;;6.27;76.70
29825;BME280;16713;52.916;12.834;2023-12-20T01:46:49;100268.00;;;6.26;76.97
29825;BME280;16713;52.916;12.834;2023-12-20T01:49:16;100269.50;;;6.23;77.61
29825;BME280;16713;52.916;12.834;2023-12-20T01:51:43;100275.84;;;6.27;76.98
29825;BME280;16713;52.916;12.834;2023-12-20T01:54:10;100276.66;;;6.28;76.45
29825;BME280;16713;52.916;12.834;2023-12-20T01:56:36;100272.44;;;6.30;75.33
29825;BME280;16713;52.916;12.834;2023-12-20T01:59:03;100282.13;;;6.28;76.30
29825;BME280;16713;52.916;12.834;2023-12-20T02:01:30;100275.66;;;6.20;75.22
29825;BME280;16713;52.916;12.834;2023-12-20T02:03:58;100272.56;;;6.22;76.21
29825;BME280;16713;52.916;12.834;2023-12-20T02:06:29;100268.50;;;6.16;76.31
29825;BME280;16713;52.916;12.834;2023-12-20T02:08:57;100272.16;;;6.20;74.42
29825;BME280;16713;52.916;12.834;2023-12-20T02:11:25;100268.16;;;6.17;75.34
29825;BME280;16713;52.916;12.834;2023-12-20T02:13:52;100272.56;;;6.22;75.47
29825;BME280;16713;52.916;12.834;2023-12-20T02:16:19;100283.69;;;6.29;75.55
29825;BME280;16713;52.916;12.834;2023-12-20T02:18:46;100284.34;;;6.38;74.68
29825;BME280;16713;52.916;12.834;2023-12-20T02:21:12;100284.56;;;6.33;75.42
29825;BME280;16713;52.916;12.834;2023-12-20T02:23:39;100279.81;;;6.30;73.53
29825;BME280;16713;52.916;12.834;2023-12-20T02:26:05;100292.09;;;6.36;75.51
29825;BME280;16713;52.916;12.834;2023-12-20T02:28:33;100289.72;;;6.34;74.03
29825;BME280;16713;52.916;12.834;2023-12-20T02:31:00;100286.09;;;6.30;74.65
29825;BME280;16713;52.916;12.834;2023-12-20T02:33:26;100283.16;;;6.23;75.75
29825;BME280;16713;52.916;12.834;2023-12-20T02:35:53;100286.16;;;6.18;75.04
29825;BME280;16713;52.916;12.834;2023-12-20T02:38:19;100275.91;;;6.15;75.06
29825;BME280;16713;52.916;12.834;2023-12-20T02:40:45;100285.09;;;6.23;74.31
29825;BME280;16713;52.916;12.834;2023-12-20T02:43:15;100281.13;;;6.20;75.15
29825;BME280;16713;52.916;12.834;2023-12-20T02:45:42;100283.84;;;6.20;73.73
29825;BME280;16713;52.916;12.834;2023-12-20T02:48:08;100279.31;;;6.12;75.30
29825;BME280;16713;52.916;12.834;2023-12-20T02:50:35;100277.63;;;6.20;73.97
29825;BME280;16713;52.916;12.834;2023-12-20T02:53:01;100280.13;;;6.13;73.21
29825;BME280;16713;52.916;12.834;2023-12-20T02:55:28;100277.28;;;6.09;75.20
29825;BME280;16713;52.916;12.834;2023-12-20T02:57:54;100283.09;;;6.08;73.94
29825;BME280;16713;52.916;12.834;2023-12-20T03:00:21;100278.56;;;6.12;75.24
29825;BME280;16713;52.916;12.834;2023-12-20T03:02:47;100279.91;;;6.06;73.35
29825;BME280;16713;52.916;12.834;2023-12-20T03:05:14;100278.91;;;6.10;73.20
29825;BME280;16713;52.916;12.834;2023-12-20T03:07:40;100282.75;;;6.09;74.16
29825;BME280;16713;52.916;12.834;2023-12-20T03:10:08;100272.19;;;6.08;72.92
29825;BME280;16713;52.916;12.834;2023-12-20T03:12:45;100268.81;;;5.99;73.38
29825;BME280;16713;52.916;12.834;2023-12-20T03:15:12;100267.44;;;6.05;72.90
29825;BME280;16713;52.916;12.834;2023-12-20T03:17:39;100267.78;;;6.03;73.57
29825;BME280;16713;52.916;12.834;2023-12-20T03:20:06;100261.72;;;6.10;73.91
29825;BME280;16713;52.916;12.834;2023-12-20T03:22:33;100259.69;;;6.07;72.87
29825;BME280;16713;52.916;12.834;2023-12-20T03:24:59;100268.94;;;6.02;74.77
29825;BME280;16713;52.916;12.834;2023-12-20T03:27:26;100259.22;;;5.93;73.95
29825;BME280;16713;52.916;12.834;2023-12-20T03:29:52;100252.09;;;5.88;73.95
29825;BME280;16713;52.916;12.834;2023-12-20T03:32:18;100246.44;;;5.81;74.48
29825;BME280;16713;52.916;12.834;2023-12-20T03:34:45;100249.59;;;5.83;73.88
29825;BME280;16713;52.916;12.834;2023-12-20T03:37:12;100254.97;;;5.79;75.14
29825;BME280;16713;52.916;12.834;2023-12-20T03:39:38;100251.09;;;5.80;75.41
29825;BME280;16713;52.916;12.834;2023-12-20T03:42:05;100251.97;;;5.84;73.60
29825;BME280;16713;52.916;12.834;2023-12-20T03:44:31;100240.88;;;5.77;74.32
29825;BME280;16713;52.916;12.834;2023-12-20T03:46:58;100238.69;;;5.83;73.75
29825;BME280;16713;52.916;12.834;2023-12-20T03:49:24;100239.94;;;5.85;74.38
29825;BME280;16713;52.916;12.834;2023-12-20T03:51:51;100229.13;;;5.89;75.19
29825;BME280;16713;52.916;12.834;2023-12-20T03:54:17;100236.75;;;5.83;73.59
29825;BME280;16713;52.916;12.834;2023-12-20T03:56:44;100240.28;;;5.84;74.36
29825;BME280;16713;52.916;12.834;2023-12-20T03:59:10;100232.25;;;5.75;74.34
29825;BME280;16713;52.916;12.834;2023-12-20T04:01:37;100226.63;;;5.84;74.25
29825;BME280;16713;52.916;12.834;2023-12-20T04:04:03;100229.16;;;5.77;73.37
29825;BME280;16713;52.916;12.834;2023-12-20T04:06:30;100235.53;;;5.81;73.47
29825;BME280;16713;52.916;12.834;2023-12-20T04:08:57;100237.25;;;5.73;73.11
29825;BME280;16713;52.916;12.834;2023-12-20T04:11:23;100236.31;;;5.81;74.29
29825;BME280;16713;52.916;12.834;2023-12-20T04:13:49;100235.53;;;5.81;74.35
29825;BME280;16713;52.916;12.834;2023-12-20T04:16:16;100234.72;;;5.80;73.10
29825;BME280;16713;52.916;12.834;2023-12-20T04:18:42;100235.88;;;5.79;74.16
29825;BME280;16713;52.916;12.834;2023-12-20T04:21:09;100236.66;;;5.80;74.67
29825;BME280;16713;52.916;12.834;2023-12-20T04:23:35;100237.66;;;5.88;73.62
29825;BME280;16713;52.916;12.834;2023-12-20T04:26:02;100229.25;;;5.80;73.55
29825;BME280;16713;52.916;12.834;2023-12-20T04:28:28;100218.94;;;5.74;74.20
29825;BME280;16713;52.916;12.834;2023-12-20T04:30:58;100218.84;;;5.70;73.21
29825;BME280;16713;52.916;12.834;2023-12-20T04:33:24;100206.00;;;5.59;72.83
29825;BME280;16713;52.916;12.834;2023-12-20T04:35:51;100199.91;;;5.50;73.71
29825;BME280;16713;52.916;12.834;2023-12-20T04:38:17;100196.19;;;5.42;74.70
29825;BME280;16713;52.916;12.834;2023-12-20T04:40:44;100192.66;;;5.42;74.25
29825;BME280;16713;52.916;12.834;2023-12-20T04:43:10;100188.25;;;5.37;74.04
29825;BME280;16713;52.916;12.834;2023-12-20T04:45:37;100183.91;;;5.36;74.36
29825;BME280;16713;52.916;12.834;2023-12-20T04:48:04;100192.78;;;5.33;73.53
29825;BME280;16713;52.916;12.834;2023-12-20T04:50:31;100195.53;;;5.33;73.76
29825;BME280;16713;52.916;12.834;2023-12-20T04:52:57;100182.22;;;5.32;74.72
29825;BME280;16713;52.916;12.834;2023-12-20T04:55:24;100185.66;;;5.29;74.97
29825;BME280;16713;52.916;12.834;2023-12-20T04:57:50;100181.81;;;5.30;73.46
29825;BME280;16713;52.916;12.834;2023-12-20T05:00:17;100177.28;;;5.22;73.92
29825;BME280;16713;52.916;12.834;2023-12-20T05:02:43;100183.63;;;5.26;74.17
29825;BME280;16713;52.916;12.834;2023-12-20T05:05:10;100189.66;;;5.19;73.89
29825;BME280;16713;52.916;12.834;2023-12-20T05:07:37;100201.91;;;5.25;75.08
29825;BME280;16713;52.916;12.834;2023-12-20T05:10:04;100196.44;;;5.25;74.49
29825;BME280;16713;52.916;12.834;2023-12-20T05:12:31;100204.63;;;5.25;74.54
29825;BME280;16713;52.916;12.834;2023-12-20T05:14:58;100220.31;;;5.28;74.97
29825;BME280;16713;52.916;12.834;2023-12-20T05:17:24;100210.53;;;5.27;74.36
29825;BME280;16713;52.916;12.834;2023-12-20T05:19:51;100204.28;;;5.27;74.29
29825;BME280;16713;52.916;12.834;2023-12-20T05:22:18;100204.50;;;5.34;74.32
29825;BME280;16713;52.916;12.834;2023-12-20T05:24:45;100201.47;;;5.23;73.79
29825;BME280;16713;52.916;12.834;2023-12-20T05:27:12;100204.19;;;5.23;73.80
29825;BME280;16713;52.916;12.834;2023-12-20T05:29:38;100197.28;;;5.14;74.27
29825;BME280;16713;52.916;12.834;2023-12-20T05:32:05;100197.81;;;5.19;74.21
29825;BME280;16713;52.916;12.834;2023-12-20T05:34:32;100188.19;;;5.22;73.54
29825;BME280;16713;52.916;12.834;2023-12-20T05:36:58;100185.53;;;5.25;73.93
29825;BME280;16713;52.916;12.834;2023-12-20T05:39:25;100178.06;;;5.22;73.63
29825;BME280;16713;52.916;12.834;2023-12-20T05:41:52;100176.66;;;5.28;73.90
29825;BME280;16713;52.916;12.834;2023-12-20T05:44:18;100171.91;;;5.25;74.12
29825;BME280;16713;52.916;12.834;2023-12-20T05:46:45;100173.94;;;5.28;72.46
29825;BME280;16713;52.916;12.834;2023-12-20T05:49:11;100170.91;;;5.30;73.86
29825;BME280;16713;52.916;12.834;2023-12-20T05:51:38;100168.81;;;5.27;72.20
29825;BME280;16713;52.916;12.834;2023-12-20T05:54:04;100168.06;;;5.26;73.23
29825;BME280;16713;52.916;12.834;2023-12-20T05:56:31;100166.03;;;5.23;72.65
29825;BME280;16713;52.916;12.834;2023-12-20T05:58:58;100161.22;;;5.20;72.42
29825;BME280;16713;52.916;12.834;2023-12-20T06:01:25;100156.69;;;5.24;72.91
29825;BME280;16713;52.916;12.834;2023-12-20T06:03:51;100161.34;;;5.24;73.08
29825;BME280;16713;52.916;12.834;2023-12-20T06:06:18;100156.94;;;5.19;73.97
29825;BME280;16713;52.916;12.834;2023-12-20T06:08:45;100153.75;;;5.17;74.02
29825;BME280;16713;52.916;12.834;2023-12-20T06:11:11;100151.94;;;5.21;72.52
29825;BME280;16713;52.916;12.834;2023-12-20T06:13:37;100152.16;;;5.16;73.56
29825;BME280;16713;52.916;12.834;2023-12-20T06:16:05;100157.97;;;5.15;74.07
29825;BME280;16713;52.916;12.834;2023-12-20T06:18:32;100143.00;;;5.09;72.46
29825;BME280;16713;52.916;12.834;2023-12-20T06:20:59;100146.50;;;5.09;72.58
29825;BME280;16713;52.916;12.834;2023-12-20T06:23:25;100139.47;;;5.08;73.04
29825;BME280;16713;52.916;12.834;2023-12-20T06:25:53;100139.47;;;5.08;73.32
29825;BME280;16713;52.916;12.834;2023-12-20T06:28:20;100139.47;;;5.08;72.81
29825;BME280;16713;52.916;12.834;2023-12-20T06:30:46;100142.53;;;5.07;72.93
29825;BME280;16713;52.916;12.834;2023-12-20T06:33:15;100132.66;;;5.02;72.82
29825;BME280;16713;52.916;12.834;2023-12-20T06:35:42;100127.22;;;5.02;73.49
29825;BME280;16713;52.916;12.834;2023-12-20T06:38:09;100139.81;;;5.07;73.17
29825;BME280;16713;52.916;12.834;2023-12-20T06:40:35;100130.94;;;5.10;73.73
29825;BME280;16713;52.916;12.834;2023-12-20T06:43:02;100136.84;;;5.12;74.30
29825;BME280;16713;52.916;12.834;2023-12-20T06:45:41;100132.09;;;5.09;72.94
29825;BME280;16713;52.916;12.834;2023-12-20T06:48:08;100134.91;;;5.12;73.98
29825;BME280;16713;52.916;12.834;2023-12-20T06:50:37;100126.72;;;5.12;74.13
29825;BME280;16713;52.916;12.834;2023-12-20T06:53:06;100119.56;;;5.08;73.46
29825;BME280;16713;52.916;12.834;2023-12-20T06:55:36;100111.28;;;5.16;73.97
29825;BME280;16713;52.916;12.834;2023-12-20T06:58:04;100122.88;;;5.13;73.01
29825;BME280;16713;52.916;12.834;2023-12-20T07:00:32;100121.25;;;5.12;72.96
29825;BME280;16713;52.916;12.834;2023-12-20T07:02:58;100122.41;;;5.11;73.10
29825;BME280;16713;52.916;12.834;2023-12-20T07:05:25;100114.69;;;5.13;74.01
29825;BME280;16713;52.916;12.834;2023-12-20T07:07:52;100111.06;;;5.09;73.63
29825;BME280;16713;52.916;12.834;2023-12-20T07:10:18;100116.97;;;5.11;74.12
29825;BME280;16713;52.916;12.834;2023-12-20T07:12:45;100114.09;;;5.20;73.53
29825;BME280;16713;52.916;12.834;2023-12-20T07:15:11;100108.19;;;5.18;72.97
29825;BME280;16713;52.916;12.834;2023-12-20T07:17:38;100106.84;;;5.12;73.24
29825;BME280;16713;52.916;12.834;2023-12-20T07:20:05;100122.63;;;5.18;73.30
29825;BME280;16713;52.916;12.834;2023-12-20T07:22:33;100117.06;;;5.15;73.24
29825;BME280;16713;52.916;12.834;2023-12-20T07:25:00;100110.63;;;5.07;73.29
29825;BME280;16713;52.916;12.834;2023-12-20T07:27:27;100118.47;;;5.09;73.61
29825;BME280;16713;52.916;12.834;2023-12-20T07:29:53;100117.19;;;5.06;74.14
29825;BME280;16713;52.916;12.834;2023-12-20T07:32:20;100117.88;;;5.03;73.30
29825;BME280;16713;52.916;12.834;2023-12-20T07:34:46;100109.81;;;5.07;73.39
29825;BME280;16713;52.916;12.834;2023-12-20T07:37:14;100105.06;;;5.04;73.46
29825;BME280;16713;52.916;12.834;2023-12-20T07:39:41;100106.75;;;5.08;74.78
29825;BME280;16713;52.916;12.834;2023-12-20T07:42:08;100096.66;;;4.97;74.52
29825;BME280;16713;52.916;12.834;2023-12-20T07:44:35;100099.38;;;4.97;74.64
29825;BME280;16713;52.916;12.834;2023-12-20T07:47:05;100098.34;;;5.01;75.04
29825;BME280;16713;52.916;12.834;2023-12-20T07:49:31;100099.72;;;5.07;73.69
29825;BME280;16713;52.916;12.834;2023-12-20T07:51:58;100092.66;;;5.06;74.19
29825;BME280;16713;52.916;12.834;2023-12-20T07:54:25;100100.94;;;5.10;74.70
29825;BME280;16713;52.916;12.834;2023-12-20T07:56:52;100103.78;;;5.13;74.94
29825;BME280;16713;52.916;12.834;2023-12-20T07:59:18;100096.06;;;5.15;73.26
29825;BME280;16713;52.916;12.834;2023-12-20T08:01:57;100098.28;;;5.25;74.31
29825;BME280;16713;52.916;12.834;2023-12-20T08:04:24;100092.22;;;5.32;73.11
29825;BME280;16713;52.916;12.834;2023-12-20T08:06:51;100104.63;;;5.29;73.41
29825;BME280;16713;52.916;12.834;2023-12-20T08:09:17;100098.50;;;5.32;74.19
29825;BME280;16713;52.916;12.834;2023-12-20T08:11:47;100106.06;;;5.39;73.66
29825;BME280;16713;52.916;12.834;2023-12-20T08:14:15;100108.09;;;5.42;73.73
29825;BME280;16713;52.916;12.834;2023-12-20T08:16:44;100110.03;;;5.41;72.62
29825;BME280;16713;52.916;12.834;2023-12-20T08:19:11;100109.25;;;5.41;73.83
29825;BME280;16713;52.916;12.834;2023-12-20T08:21:37;100103.81;;;5.41;72.51
29825;BME280;16713;52.916;12.834;2023-12-20T08:24:05;100098.34;;;5.41;73.98
29825;BME280;16713;52.916;12.834;2023-12-20T08:26:32;100098.59;;;5.36;73.04
29825;BME280;16713;52.916;12.834;2023-12-20T08:28:59;100094.00;;;5.40;73.73
29825;BME280;16713;52.916;12.834;2023-12-20T08:31:28;100097.09;;;5.38;73.39
29825;BME280;16713;52.916;12.834;2023-12-20T08:33:55;100086.28;;;5.42;73.71
29825;BME280;16713;52.916;12.834;2023-12-20T08:36:22;100092.53;;;5.42;72.68
29825;BME280;16713;52.916;12.834;2023-12-20T08:38:49;100089.28;;;5.52;72.96
29825;BME280;16713;52.916;12.834;2023-12-20T08:41:17;100087.25;;;5.49;73.62
29825;BME280;16713;52.916;12.834;2023-12-20T08:43:43;100079.44;;;5.48;74.03
29825;BME280;16713;52.916;12.834;2023-12-20T08:46:10;100087.97;;;5.46;72.83
29825;BME280;16713;52.916;12.834;2023-12-20T08:48:37;100079.78;;;5.46;73.50
29825;BME280;16713;52.916;12.834;2023-12-20T08:51:04;100088.66;;;5.43;73.26
29825;BME280;16713;52.916;12.834;2023-12-20T08:53:33;100089.00;;;5.42;73.75
29825;BME280;16713;52.916;12.834;2023-12-20T08:56:00;100076.28;;;5.46;72.85
29825;BME280;16713;52.916;12.834;2023-12-20T08:58:28;100081.44;;;5.35;72.83
29825;BME280;16713;52.916;12.834;2023-12-20T09:00:55;100085.72;;;5.36;72.62
29825;BME280;16713;52.916;12.834;2023-12-20T09:03:21;100079.50;;;5.36;73.53
29825;BME280;16713;52.916;12.834;2023-12-20T09:05:48;100087.34;;;5.37;72.91
29825;BME280;16713;52.916;12.834;2023-12-20T09:08:14;100083.69;;;5.33;74.28
29825;BME280;16713;52.916;12.834;2023-12-20T09:10:41;100076.44;;;5.37;73.46
29825;BME280;16713;52.916;12.834;2023-12-20T09:13:07;100083.00;;;5.36;73.91
29825;BME280;16713;52.916;12.834;2023-12-20T09:15:34;100086.75;;;5.44;73.28
29825;BME280;16713;52.916;12.834;2023-12-20T09:18:02;100069.22;;;5.45;74.27
29825;BME280;16713;52.916;12.834;2023-12-20T09:20:30;100073.00;;;5.40;73.72
29825;BME280;16713;52.916;12.834;2023-12-20T09:22:57;100075.94;;;5.47;72.52
29825;BME280;16713;52.916;12.834;2023-12-20T09:25:24;100069.66;;;5.47;73.68
29825;BME280;16713;52.916;12.834;2023-12-20T09:27:50;100072.25;;;5.55;72.28
29825;BME280;16713;52.916;12.834;2023-12-20T09:30:18;100068.28;;;5.53;73.23
29825;BME280;16713;52.916;12.834;2023-12-20T09:32:53;100063.72;;;5.57;72.04
29825;BME280;16713;52.916;12.834;2023-12-20T09:35:20;100050.06;;;5.57;72.07
29825;BME280;16713;52.916;12.834;2023-12-20T09:37:47;100059.22;;;5.64;71.64
29825;BME280;16713;52.916;12.834;2023-12-20T09:40:14;100065.75;;;5.60;72.12
29825;BME280;16713;52.916;12.834;2023-12-20T09:42:56;100057.09;;;5.58;72.16
29825;BME280;16713;52.916;12.834;2023-12-20T09:45:23;100057.00;;;5.54;73.73
29825;BME280;16713;52.916;12.834;2023-12-20T09:47:54;100055.78;;;5.52;73.93
29825;BME280;16713;52.916;12.834;2023-12-20T09:50:22;100060.34;;;5.48;73.37
29825;BME280;16713;52.916;12.834;2023-12-20T09:52:50;100047.84;;;5.47;73.02
29825;BME280;16713;52.916;12.834;2023-12-20T09:55:18;100033.84;;;5.48;73.15
29825;BME280;16713;52.916;12.834;2023-12-20T09:57:46;100023.56;;;5.57;72.32
29825;BME280;16713;52.916;12.834;2023-12-20T10:00:14;100024.72;;;5.56;74.00
29825;BME280;16713;52.916;12.834;2023-12-20T10:05:26;100013.34;;;5.54;74.60
29825;BME280;16713;52.916;12.834;2023-12-20T10:07:53;100007.81;;;5.51;72.43
29825;BME280;16713;52.916;12.834;2023-12-20T10:10:20;100007.72;;;5.47;74.08
29825;BME280;16713;52.916;12.834;2023-12-20T10:13:05;100004.06;;;5.55;72.70
29825;BME280;16713;52.916;12.834;2023-12-20T10:15:36;100000.88;;;5.53;72.54
29825;BME280;16713;52.916;12.834;2023-12-20T10:18:03;99991.00;;;5.64;72.45
29825;BME280;16713;52.916;12.834;2023-12-20T10:20:30;99977.63;;;5.59;72.19
29825;BME280;16713;52.916;12.834;2023-12-20T10:22:58;99980.38;;;5.59;73.70
29825;BME280;16713;52.916;12.834;2023-12-20T10:25:25;99987.84;;;5.62;73.28
29825;BME280;16713;52.916;12.834;2023-12-20T10:30:37;99966.53;;;5.52;72.41
29825;BME280;16713;52.916;12.834;2023-12-20T10:33:08;99961.78;;;5.49;71.85
29825;BME280;16713;52.916;12.834;2023-12-20T10:35:36;99964.25;;;5.54;72.62
29825;BME280;16713;52.916;12.834;2023-12-20T10:38:05;99958.78;;;5.54;72.92
29825;BME280;16713;52.916;12.834;2023-12-20T10:40:36;99952.28;;;5.59;72.61
29825;BME280;16713;52.916;12.834;2023-12-20T10:43:03;99958.72;;;5.66;73.70
29825;BME280;16713;52.916;12.834;2023-12-20T10:45:31;99946.22;;;5.65;71.96
29825;BME280;16713;52.916;12.834;2023-12-20T10:47:58;99938.56;;;5.55;72.51
29825;BME280;16713;52.916;12.834;2023-12-20T10:50:27;99945.84;;;5.67;72.18
29825;BME280;16713;52.916;12.834;2023-12-20T10:52:58;99938.03;;;5.65;74.02
29825;BME280;16713;52.916;12.834;2023-12-20T10:55:25;99947.91;;;5.70;73.98
29825;BME280;16713;52.916;12.834;2023-12-20T10:57:54;99924.03;;;5.67;72.96
29825;BME280;16713;52.916;12.834;2023-12-20T11:00:26;99935.28;;;5.65;73.08
29825;BME280;16713;52.916;12.834;2023-12-20T11:02:55;99925.97;;;5.66;74.30
29825;BME280;16713;52.916;12.834;2023-12-20T11:08:22;99901.56;;;5.73;73.33
29825;BME280;16713;52.916;12.834;2023-12-20T11:13:25;99870.78;;;5.73;73.33
29825;BME280;16713;52.916;12.834;2023-12-20T11:15:53;99881.94;;;5.83;72.86
29825;BME280;16713;52.916;12.834;2023-12-20T11:18:28;99854.91;;;5.78;73.27
29825;BME280;16713;52.916;12.834;2023-12-20T11:21:00;99854.72;;;5.87;73.63
29825;BME280;16713;52.916;12.834;2023-12-20T11:23:27;99859.81;;;5.88;74.03
29825;BME280;16713;52.916;12.834;2023-12-20T11:25:55;99842.22;;;5.86;73.60
29825;BME280;16713;52.916;12.834;2023-12-20T11:28:23;99848.38;;;5.83;72.62
29825;BME280;16713;52.916;12.834;2023-12-20T11:33:26;99825.69;;;5.79;73.56
29825;BME280;16713;52.916;12.834;2023-12-20T11:35:56;99816.34;;;5.80;73.95
29825;BME280;16713;52.916;12.834;2023-12-20T11:38:24;99809.66;;;5.77;72.92
29825;BME280;16713;52.916;12.834;2023-12-20T11:40:53;99810.66;;;5.69;73.28
29825;BME280;16713;52.916;12.834;2023-12-20T11:43:39;99803.50;;;5.80;74.00
29825;BME280;16713;52.916;12.834;2023-12-20T11:46:06;99797.69;;;5.82;73.75
29825;BME280;16713;52.916;12.834;2023-12-20T11:48:36;99790.56;;;5.77;73.04
29825;BME280;16713;52.916;12.834;2023-12-20T11:51:09;99795.91;;;5.55;73.03
29825;BME280;16713;52.916;12.834;2023-12-20T11:53:35;99798.72;;;5.58;73.48
29825;BME280;16713;52.916;12.834;2023-12-20T11:56:05;99797.28;;;5.64;73.35
29825;BME280;16713;52.916;12.834;2023-12-20T11:58:33;99778.91;;;5.61;73.66
29825;BME280;16713;52.916;12.834;2023-12-20T12:01:00;99792.41;;;5.73;74.21
29825;BME280;16713;52.916;12.834;2023-12-20T12:03:28;99806.41;;;5.72;74.42
29825;BME280;16713;52.916;12.834;2023-12-20T12:05:55;99795.78;;;5.67;74.51
29825;BME280;16713;52.916;12.834;2023-12-20T12:08:22;99787.66;;;5.51;74.14
29825;BME280;16713;52.916;12.834;2023-12-20T12:10:48;99782.84;;;5.64;72.86
29825;BME280;16713;52.916;12.834;2023-12-20T12:13:15;99779.19;;;5.56;74.81
29825;BME280;16713;52.916;12.834;2023-12-20T12:15:42;99796.56;;;5.67;73.86
29825;BME280;16713;52.916;12.834;2023-12-20T12:18:08;99784.94;;;5.70;74.32
29825;BME280;16713;52.916;12.834;2023-12-20T12:20:36;99789.97;;;5.68;74.22
29825;BME280;16713;52.916;12.834;2023-12-20T12:23:05;99789.28;;;5.71;73.18
29825;BME280;16713;52.916;12.834;2023-12-20T12:25:35;99781.13;;;5.56;72.62
29825;BME280;16713;52.916;12.834;2023-12-20T12:28:07;99767.63;;;5.63;71.27
29825;BME280;16713;52.916;12.834;2023-12-20T12:30:33;99768.09;;;5.65;72.31
29825;BME280;16713;52.916;12.834;2023-12-20T12:33:08;99771.84;;;5.60;71.40
29825;BME280;16713;52.916;12.834;2023-12-20T12:35:35;99786.47;;;5.52;70.19
29825;BME280;16713;52.916;12.834;2023-12-20T12:38:01;99793.38;;;5.46;70.58
29825;BME280;16713;52.916;12.834;2023-12-20T12:40:29;99797.03;;;5.69;69.06
29825;BME280;16713;52.916;12.834;2023-12-20T12:42:56;99801.72;;;5.53;70.36
29825;BME280;16713;52.916;12.834;2023-12-20T12:45:22;99807.56;;;5.71;69.41
29825;BME280;16713;52.916;12.834;2023-12-20T12:47:48;99796.31;;;5.72;68.38
29825;BME280;16713;52.916;12.834;2023-12-20T12:50:15;99806.03;;;5.54;69.33
29825;BME280;16713;52.916;12.834;2023-12-20T12:52:42;99801.72;;;5.53;70.06
29825;BME280;16713;52.916;12.834;2023-12-20T12:55:08;99800.66;;;5.58;68.81
29825;BME280;16713;52.916;12.834;2023-12-20T12:57:35;99809.38;;;5.63;69.32
29825;BME280;16713;52.916;12.834;2023-12-20T13:00:02;99814.81;;;5.63;70.51
29825;BME280;16713;52.916;12.834;2023-12-20T13:02:29;99819.34;;;5.75;69.20
29825;BME280;16713;52.916;12.834;2023-12-20T13:04:56;99816.25;;;5.76;68.63
29825;BME280;16713;52.916;12.834;2023-12-20T13:07:23;99821.81;;;5.80;68.88